Time;durP1;ratioP1;P1;durP2;ratioP2;P2;SDS_P1;SDS_P2;PMS_P1;PMS_P2;Temp;Humidity;BMP_temperature;BMP_pressure;BME280_temperature;BME280_humidity;BME280_pressure;Samples;Min_cycle;Max_cycle;Signal;HPM_P1;HPM_P2
2022/04/16 00:01:17;;;;;;;8.30;4.70;;;;;;;39.38;39.93;101023.28;6157727;23;20415;-71
2022/04/16 00:03:45;;;;;;;7.33;3.33;;;;;;;39.39;39.58;101014.84;6157925;23;20811;-71
2022/04/16 00:06:11;;;;;;;8.17;3.47;;;;;;;39.44;39.51;101013.91;6157574;23;20468;-70
2022/04/16 00:08:38;;;;;;;12.67;5.43;;;;;;;39.48;40.01;101018.41;6157908;23;20415;-70
2022/04/16 00:11:06;;;;;;;8.53;3.27;;;;;;;39.52;39.54;101020.47;6157732;23;20428;-71
2022/04/16 00:13:32;;;;;;;12.17;4.00;;;;;;;39.52;39.92;101012.34;6157935;23;20594;-71
2022/04/16 00:15:59;;;;;;;7.40;2.63;;;;;;;39.47;40.24;101011.38;6157617;23;20490;-72
2022/04/16 00:18:25;;;;;;;8.00;2.60;;;;;;;39.47;40.07;101008.66;6157646;23;20389;-72
2022/04/16 00:20:52;;;;;;;7.40;3.30;;;;;;;39.64;39.72;101002.50;6157681;23;20403;-71
2022/04/16 00:23:19;;;;;;;8.70;2.83;;;;;;;39.48;40.21;100993.16;6157501;23;20539;-71
2022/04/16 00:25:47;;;;;;;8.60;3.10;;;;;;;39.47;40.14;100997.81;6157804;23;20467;-72
2022/04/16 00:28:13;;;;;;;5.67;2.60;;;;;;;39.37;40.62;100983.69;6157711;23;20376;-72
2022/04/16 00:30:40;;;;;;;6.93;3.20;;;;;;;39.46;40.60;100979.09;6157192;23;20435;-73
2022/04/16 00:33:15;;;;;;;9.47;5.13;;;;;;;39.54;40.44;100974.81;6157698;23;20463;-72
2022/04/16 00:35:42;;;;;;;17.73;3.97;;;;;;;39.50;40.87;100971.94;6157540;23;20392;-72
2022/04/16 00:38:08;;;;;;;8.30;3.67;;;;;;;39.52;40.46;100972.41;6157481;23;20415;-70
2022/04/16 00:40:35;;;;;;;8.63;3.37;;;;;;;39.64;40.39;100964.50;6157474;23;20463;-71
2022/04/16 00:43:02;;;;;;;8.00;2.67;;;;;;;39.63;40.59;100960.19;6157390;23;20412;-72
2022/04/16 00:45:30;;;;;;;12.30;3.97;;;;;;;39.63;40.45;100962.88;6157633;23;20398;-70
2022/04/16 00:47:57;;;;;;;8.47;3.80;;;;;;;39.52;40.75;100952.59;6133368;23;20403;-72
2022/04/16 00:50:23;;;;;;;9.93;3.47;;;;;;;39.52;40.78;100950.69;6157487;23;20431;-72
2022/04/16 00:52:49;;;;;;;6.60;3.70;;;;;;;39.48;41.30;100955.16;6157403;23;20392;-72
2022/04/16 00:55:16;;;;;;;7.83;3.30;;;;;;;39.57;40.97;100944.31;6157380;23;20947;-72
2022/04/16 00:57:42;;;;;;;7.57;2.83;;;;;;;39.54;40.74;100940.34;6157387;23;20385;-72
2022/04/16 01:00:12;;;;;;;8.90;4.67;;;;;;;39.38;40.64;100939.16;6157356;23;20373;-72
2022/04/16 01:02:39;;;;;;;7.40;3.20;;;;;;;39.40;40.62;100940.44;6157482;23;20376;-72
2022/04/16 01:05:07;;;;;;;6.93;2.70;;;;;;;39.36;40.79;100933.25;6157433;23;20709;-72
2022/04/16 01:07:33;;;;;;;6.57;2.80;;;;;;;39.28;40.82;100918.53;6184374;23;20356;-72
2022/04/16 01:10:00;;;;;;;6.53;3.17;;;;;;;39.33;40.82;100918.38;6135021;23;20478;-72
2022/04/16 01:12:26;;;;;;;8.17;4.03;;;;;;;39.36;41.14;100922.41;6159367;23;20391;-70
2022/04/16 01:14:53;;;;;;;6.30;3.00;;;;;;;39.30;41.26;100913.59;6185844;23;20388;-72
2022/04/16 01:17:19;;;;;;;10.37;4.30;;;;;;;39.23;40.85;100905.91;6159419;23;20845;-72
2022/04/16 01:19:47;;;;;;;7.20;3.23;;;;;;;39.31;40.76;100901.63;6159858;23;20427;-72
2022/04/16 01:22:14;;;;;;;6.53;3.23;;;;;;;39.31;40.54;100895.41;6185890;23;20435;-72
2022/04/16 01:24:48;;;;;;;7.70;3.80;;;;;;;39.35;40.71;100893.63;6159515;23;20380;-72
2022/04/16 01:27:17;;;;;;;13.90;3.07;;;;;;;39.23;40.71;100880.69;6159503;23;20888;-70
2022/04/16 01:29:44;;;;;;;6.53;3.57;;;;;;;39.37;40.02;100877.84;6159205;23;20975;-70
2022/04/16 01:32:10;;;;;;;9.77;3.60;;;;;;;39.38;40.35;100874.81;6135000;23;20399;-70
2022/04/16 01:34:37;;;;;;;9.03;3.60;;;;;;;39.41;39.85;100876.91;6159261;23;20863;-71
2022/04/16 01:37:04;;;;;;;8.30;3.50;;;;;;;39.34;40.03;100875.75;6159273;23;20380;-70
2022/04/16 01:39:30;;;;;;;6.50;2.73;;;;;;;39.32;39.68;100865.22;6159305;23;20380;-71
2022/04/16 01:41:58;;;;;;;6.90;2.90;;;;;;;39.17;39.93;100861.06;6185633;23;20357;-72
2022/04/16 01:44:24;;;;;;;5.97;3.03;;;;;;;39.13;40.05;100865.47;6159293;23;20387;-72
2022/04/16 01:46:51;;;;;;;7.97;2.30;;;;;;;39.10;40.08;100859.84;6159037;23;20388;-72
2022/04/16 01:49:20;;;;;;;7.87;2.47;;;;;;;38.96;40.58;100862.69;6159074;23;20408;-72
2022/04/16 01:51:47;;;;;;;9.27;2.63;;;;;;;38.89;40.48;100854.22;6159097;23;20396;-72
2022/04/16 01:54:13;;;;;;;9.43;2.30;;;;;;;39.07;40.31;100855.88;6159184;23;20395;-72
2022/04/16 01:56:39;;;;;;;10.10;4.20;;;;;;;39.08;40.71;100859.38;6158737;23;20431;-72
2022/04/16 01:59:42;;;;;;;7.30;2.67;;;;;;;38.89;41.20;100849.59;6159094;23;20388;-70
2022/04/16 02:02:08;;;;;;;6.70;2.80;;;;;;;38.92;41.12;100851.69;6159017;23;20411;-71
2022/04/16 02:04:34;;;;;;;8.90;3.10;;;;;;;38.82;41.39;100843.81;6134914;23;20392;-70
2022/04/16 02:07:00;;;;;;;5.90;2.67;;;;;;;38.99;41.09;100845.00;6185672;23;20435;-70
2022/04/16 02:09:26;;;;;;;9.13;2.80;;;;;;;39.04;40.53;100826.69;6159245;23;20427;-72
2022/04/16 02:11:52;;;;;;;8.17;2.97;;;;;;;39.00;40.26;100833.84;6158970;23;20388;-72
2022/04/16 02:14:21;;;;;;;6.40;2.70;;;;;;;39.05;40.30;100827.47;6158766;23;20417;-71
2022/04/16 02:16:48;;;;;;;14.37;4.80;;;;;;;38.87;40.80;100824.69;6134790;23;20420;-71
2022/04/16 02:19:17;;;;;;;7.67;2.80;;;;;;;38.64;40.78;100829.34;6159097;23;20361;-70
2022/04/16 02:21:44;;;;;;;6.90;2.97;;;;;;;38.82;40.48;100826.75;6185273;23;20435;-70
2022/04/16 02:24:13;;;;;;;8.43;5.13;;;;;;;38.84;40.50;100824.50;6158955;23;20388;-70
2022/04/16 02:26:40;;;;;;;6.37;2.57;;;;;;;38.98;40.63;100833.34;6185174;23;20349;-72
2022/04/16 02:29:08;;;;;;;8.60;3.70;;;;;;;39.06;40.61;100826.34;6158760;23;20468;-72
2022/04/16 02:31:36;;;;;;;7.17;3.50;;;;;;;39.05;40.06;100819.34;6158558;23;20420;-72
2022/04/16 02:34:04;;;;;;;7.30;3.00;;;;;;;39.14;39.98;100823.66;6158615;23;20494;-72
2022/04/16 02:36:30;;;;;;;5.70;2.60;;;;;;;39.17;40.25;100820.34;6158691;23;20730;-72
2022/04/16 02:38:57;;;;;;;7.10;2.90;;;;;;;39.14;40.22;100812.81;6158970;23;20836;-72
2022/04/16 02:41:24;;;;;;;7.40;3.50;;;;;;;39.20;39.96;100811.56;6158730;23;20403;-72
2022/04/16 02:43:54;;;;;;;15.40;5.30;;;;;;;39.06;40.26;100808.16;6158576;23;20846;-72
2022/04/16 02:49:06;;;;;;;12.93;2.90;;;;;;;39.16;40.13;100823.34;6162947;23;20406;-72
2022/04/16 02:51:33;;;;;;;5.67;2.40;;;;;;;38.99;40.37;100826.81;6158451;23;20431;-72
2022/04/16 02:53:59;;;;;;;7.67;3.70;;;;;;;38.80;40.91;100827.06;6158379;23;20463;-72
2022/04/16 02:56:25;;;;;;;6.43;3.50;;;;;;;38.87;41.09;100830.13;6158341;23;20440;-72
2022/04/16 02:58:51;;;;;;;7.93;4.07;;;;;;;38.95;40.91;100837.47;6158387;23;20424;-71
2022/04/16 03:01:18;;;;;;;8.50;5.40;;;;;;;38.96;41.02;100836.38;6158428;23;20384;-72
2022/04/16 03:03:44;;;;;;;10.20;4.40;;;;;;;38.89;41.14;100829.81;6158588;23;20490;-72
2022/04/16 03:06:10;;;;;;;8.53;4.13;;;;;;;38.74;41.52;100830.22;6158302;23;20475;-72
2022/04/16 03:08:36;;;;;;;9.13;4.87;;;;;;;38.73;41.65;100839.44;6158388;23;20467;-72
2022/04/16 03:11:05;;;;;;;11.57;6.40;;;;;;;38.55;42.02;100833.13;6158080;23;20502;-72
2022/04/16 03:13:35;;;;;;;12.50;5.70;;;;;;;38.63;42.13;100838.59;6158340;23;20421;-71
2022/04/16 03:18:46;;;;;;;9.30;6.07;;;;;;;38.35;42.59;100834.44;6162714;23;20877;-70
2022/04/16 03:21:13;;;;;;;14.90;7.57;;;;;;;38.34;43.16;100838.28;6158106;23;20416;-71
2022/04/16 03:23:39;;;;;;;10.27;5.97;;;;;;;38.46;42.92;100835.78;6158204;23;20385;-72
2022/04/16 03:26:06;;;;;;;12.67;7.67;;;;;;;38.30;42.89;100853.53;6157993;23;20887;-70
2022/04/16 03:28:32;;;;;;;14.33;7.90;;;;;;;37.49;44.40;100845.31;6158176;23;20467;-70
2022/04/16 03:30:58;;;;;;;11.20;6.70;;;;;;;37.72;43.99;100855.09;6157433;23;20447;-70
2022/04/16 03:33:25;;;;;;;15.40;6.87;;;;;;;37.40;44.40;100842.53;6184583;23;20411;-71
2022/04/16 03:35:51;;;;;;;13.17;7.77;;;;;;;37.69;43.66;100847.59;6158004;23;20403;-71
2022/04/16 03:38:20;;;;;;;11.43;7.40;;;;;;;37.81;43.55;100838.94;6184417;23;20400;-70
2022/04/16 03:40:48;;;;;;;12.57;6.80;;;;;;;37.79;43.35;100839.25;6157993;23;20391;-71
2022/04/16 03:43:14;;;;;;;13.63;8.20;;;;;;;38.00;42.97;100825.25;6133917;23;20384;-71
2022/04/16 03:45:40;;;;;;;14.13;7.60;;;;;;;37.98;42.69;100832.88;6133372;23;20876;-71
2022/04/16 03:48:08;;;;;;;15.83;8.17;;;;;;;37.98;42.55;100830.97;6157980;23;20385;-70
2022/04/16 03:50:35;;;;;;;15.40;8.67;;;;;;;37.82;43.00;100819.72;6157814;23;20446;-72
2022/04/16 03:53:02;;;;;;;13.00;8.00;;;;;;;37.95;42.51;100823.47;6158037;23;20392;-72
2022/04/16 04:01:18;;;;;;;11.23;6.10;;;;;;;37.63;43.07;100827.97;6176485;23;20418;-72
2022/04/16 04:03:46;;;;;;;9.07;6.00;;;;;;;37.33;43.45;100823.19;6157622;23;20884;-70
2022/04/16 04:06:13;;;;;;;10.30;6.90;;;;;;;37.40;43.53;100829.00;6157837;23;20761;-70
2022/04/16 04:08:39;;;;;;;11.73;7.13;;;;;;;37.54;43.72;100823.56;6157878;23;20466;-70
2022/04/16 04:11:05;;;;;;;12.23;6.80;;;;;;;37.24;44.61;100825.78;6184533;23;20491;-72
2022/04/16 04:13:31;;;;;;;10.93;6.07;;;;;;;37.41;44.09;100827.09;6157733;23;20384;-71
2022/04/16 04:15:57;;;;;;;19.27;8.73;;;;;;;37.58;43.94;100825.38;6157721;23;20400;-72
2022/04/16 04:18:24;;;;;;;19.27;9.83;;;;;;;37.75;43.90;100822.03;6157540;23;20407;-70
2022/04/16 04:20:51;;;;;;;15.10;8.03;;;;;;;37.94;43.18;100818.34;6133511;23;20380;-72
2022/04/16 04:23:19;;;;;;;14.90;8.67;;;;;;;38.05;43.16;100808.88;6157690;23;20392;-71
2022/04/16 04:25:45;;;;;;;14.90;10.03;;;;;;;38.03;43.17;100816.53;6133365;23;20404;-70
2022/04/16 04:28:11;;;;;;;17.73;11.87;;;;;;;38.05;42.65;100828.63;6157311;23;20746;-70
2022/04/16 04:30:37;;;;;;;14.60;8.40;;;;;;;38.08;43.25;100830.75;6156966;23;20422;-70
2022/04/16 04:33:03;;;;;;;17.17;6.90;;;;;;;38.06;42.96;100827.56;6157666;23;20392;-70
2022/04/16 04:35:29;;;;;;;14.97;6.23;;;;;;;38.24;42.38;100835.78;6157530;23;20380;-70
2022/04/16 04:37:55;;;;;;;12.90;5.67;;;;;;;38.25;41.62;100838.19;6157478;23;20471;-70
2022/04/16 04:40:22;;;;;;;8.30;4.43;;;;;;;37.58;42.95;100838.09;6133057;23;20380;-70
2022/04/16 04:42:48;;;;;;;15.83;5.60;;;;;;;37.60;43.16;100846.72;6133086;23;20460;-72
2022/04/16 04:45:15;;;;;;;12.90;6.07;;;;;;;37.35;43.82;100856.16;6157593;23;20494;-72
2022/04/16 04:47:41;;;;;;;16.30;7.30;;;;;;;37.18;44.05;100855.94;6157545;23;20391;-72
2022/04/16 04:50:09;;;;;;;8.97;4.47;;;;;;;36.88;44.55;100860.84;6157420;23;20452;-72
2022/04/16 04:52:39;;;;;;;14.23;5.53;;;;;;;36.42;45.50;100867.03;6157557;23;20391;-70
2022/04/16 04:55:13;;;;;;;8.73;5.80;;;;;;;36.42;45.30;100860.81;6157171;23;20462;-71
2022/04/16 04:57:42;;;;;;;19.97;4.87;;;;;;;36.81;45.41;100857.69;6157556;23;20388;-70
2022/04/16 05:00:10;;;;;;;11.90;5.23;;;;;;;36.61;45.10;100858.88;6133151;23;20377;-70
2022/04/16 05:02:41;;;;;;;11.97;6.00;;;;;;;36.05;46.58;100849.75;6183998;23;20364;-69
2022/04/16 05:05:08;;;;;;;10.57;5.30;;;;;;;36.09;46.86;100862.66;6133228;23;20783;-71
2022/04/16 05:07:34;;;;;;;7.40;3.20;;;;;;;35.94;47.07;100866.38;6157511;23;20384;-71
2022/04/16 05:10:00;;;;;;;8.17;3.13;;;;;;;35.20;48.86;100861.31;6183878;23;20408;-70
2022/04/16 05:12:26;;;;;;;7.30;3.60;;;;;;;35.23;48.88;100882.31;6183772;23;20439;-72
2022/04/16 05:14:52;;;;;;;9.67;4.17;;;;;;;35.29;48.41;100893.84;6157342;23;20408;-73
2022/04/16 05:17:18;;;;;;;8.27;3.80;;;;;;;35.10;48.75;100891.09;6157463;23;20534;-73
2022/04/16 05:19:44;;;;;;;12.80;4.70;;;;;;;35.55;47.82;100888.22;6183713;23;20426;-73
2022/04/16 05:22:10;;;;;;;8.90;4.53;;;;;;;35.27;47.60;100887.94;6157434;23;20833;-73
2022/04/16 05:24:36;;;;;;;7.23;3.30;;;;;;;35.74;46.62;100887.13;6183708;23;20377;-74
2022/04/16 05:27:02;;;;;;;6.10;3.77;;;;;;;35.84;46.32;100902.38;6157382;23;20780;-74
2022/04/16 05:29:48;;;;;;;7.50;3.20;;;;;;;35.80;46.22;100918.38;6157130;23;20792;-72
2022/04/16 05:32:19;;;;;;;6.50;3.17;;;;;;;35.63;47.40;100919.94;6183623;23;20384;-74
2022/04/16 05:34:45;;;;;;;6.27;2.83;;;;;;;36.16;46.48;100923.31;6157281;23;20376;-73
2022/04/16 05:37:11;;;;;;;6.70;2.90;;;;;;;35.70;47.10;100925.78;6183638;23;20418;-73
2022/04/16 05:39:38;;;;;;;9.63;4.67;;;;;;;36.03;46.20;100924.84;6157707;23;20475;-73
2022/04/16 05:42:05;;;;;;;12.20;5.43;;;;;;;36.14;46.23;100930.09;6157269;23;20423;-74
2022/04/16 05:44:31;;;;;;;8.20;3.93;;;;;;;36.07;46.29;100941.25;6157200;23;20416;-73
2022/04/16 05:46:57;;;;;;;16.83;4.63;;;;;;;36.20;45.29;100937.03;6157203;23;20733;-73
2022/04/16 05:49:23;;;;;;;7.60;3.57;;;;;;;35.64;46.86;100921.53;6157200;23;20883;-74
2022/04/16 05:51:49;;;;;;;8.33;4.23;;;;;;;35.87;46.09;100920.72;6157246;23;20388;-74
2022/04/16 05:54:15;;;;;;;9.50;4.53;;;;;;;35.69;47.14;100916.09;6158143;23;20876;-73
2022/04/16 05:56:41;;;;;;;9.63;5.70;;;;;;;35.47;47.67;100912.00;6158854;23;20941;-73
2022/04/16 05:59:08;;;;;;;10.20;5.50;;;;;;;35.66;47.70;100925.53;6158884;23;20795;-73
2022/04/16 06:01:34;;;;;;;8.53;5.70;;;;;;;35.60;47.53;100937.50;6159057;23;20467;-73
2022/04/16 06:04:00;;;;;;;8.03;4.90;;;;;;;36.06;46.51;100945.84;6185515;23;20459;-73
2022/04/16 06:06:26;;;;;;;7.60;4.97;;;;;;;35.80;47.63;100941.84;6158937;23;20467;-73
2022/04/16 06:08:52;;;;;;;10.83;5.67;;;;;;;36.32;46.29;100956.28;6159254;23;20775;-73
2022/04/16 06:11:20;;;;;;;10.50;6.60;;;;;;;36.47;45.83;100985.03;6158578;23;20426;-72
2022/04/16 06:13:46;;;;;;;11.20;6.60;;;;;;;36.63;45.37;100990.97;6185151;23;20384;-73
2022/04/16 06:16:12;;;;;;;11.83;5.90;;;;;;;36.71;45.23;101014.63;6159117;23;20373;-74
2022/04/16 06:18:41;;;;;;;10.00;5.13;;;;;;;36.74;45.08;101008.66;6158745;23;20431;-73
2022/04/16 06:21:07;;;;;;;9.13;5.37;;;;;;;36.88;45.00;101011.44;6158582;23;20927;-74
2022/04/16 06:23:33;;;;;;;8.93;5.00;;;;;;;36.95;45.07;101017.25;6158587;23;20408;-74
2022/04/16 06:25:59;;;;;;;8.70;5.47;;;;;;;36.99;45.40;101031.81;6157995;23;20384;-73
2022/04/16 06:28:25;;;;;;;16.50;6.07;;;;;;;36.74;46.10;101057.31;6185183;23;20384;-73
2022/04/16 06:30:51;;;;;;;18.13;6.77;;;;;;;36.61;46.20;101066.94;6158332;23;20771;-73
2022/04/16 06:33:17;;;;;;;12.60;5.70;;;;;;;36.35;47.10;101062.97;6158420;23;20884;-73
2022/04/16 06:35:43;;;;;;;10.70;5.60;;;;;;;36.02;48.05;101058.22;6158055;23;20391;-72
2022/04/16 06:38:09;;;;;;;9.53;6.60;;;;;;;36.15;46.73;101047.81;6184838;23;20414;-72
2022/04/16 06:40:35;;;;;;;12.43;6.50;;;;;;;36.20;46.58;101032.34;6158499;23;20384;-73
2022/04/16 06:43:01;;;;;;;9.50;5.70;;;;;;;35.99;47.30;101039.09;6158402;23;20853;-72
2022/04/16 06:45:27;;;;;;;11.70;5.77;;;;;;;35.96;46.89;101047.75;6158633;23;20442;-73
2022/04/16 06:47:53;;;;;;;10.93;6.80;;;;;;;35.05;49.47;101047.53;6158492;23;20392;-72
2022/04/16 06:50:19;;;;;;;20.80;7.53;;;;;;;34.74;51.12;101045.03;6158362;23;20448;-73
2022/04/16 06:52:45;;;;;;;20.53;9.50;;;;;;;34.45;51.80;101057.56;6185010;23;20357;-73
2022/04/16 06:55:12;;;;;;;16.53;8.70;;;;;;;34.57;51.20;101071.53;6158115;23;20590;-72
2022/04/16 06:57:38;;;;;;;14.40;7.60;;;;;;;34.38;51.42;101095.56;6158445;23;20380;-72
2022/04/16 07:00:06;;;;;;;11.33;7.60;;;;;;;34.38;50.79;101100.13;6158501;23;20384;-72
2022/04/16 07:02:32;;;;;;;19.97;7.10;;;;;;;33.81;51.40;101104.00;6158265;23;20467;-72
2022/04/16 07:04:58;;;;;;;12.40;7.17;;;;;;;34.24;50.60;101104.47;6158171;23;20391;-73
2022/04/16 07:07:24;;;;;;;26.43;7.77;;;;;;;34.26;49.63;101102.34;6157711;23;20392;-72
2022/04/16 07:09:50;;;;;;;11.10;6.33;;;;;;;34.20;49.71;101110.44;6157986;23;20426;-72
2022/04/16 07:12:18;;;;;;;10.67;6.73;;;;;;;34.40;49.03;101122.19;6157940;23;20392;-74
2022/04/16 07:14:44;;;;;;;12.47;6.30;;;;;;;34.67;48.93;101122.63;6157651;23;20459;-72
2022/04/16 07:17:10;;;;;;;10.97;7.93;;;;;;;35.16;46.88;101121.84;6184335;23;20357;-73
2022/04/16 07:19:36;;;;;;;10.77;6.37;;;;;;;35.53;47.04;101121.28;6157942;23;20772;-72
2022/04/16 07:22:03;;;;;;;14.50;8.30;;;;;;;35.53;46.81;101117.81;6157849;23;20376;-73
2022/04/16 07:24:29;;;;;;;16.60;8.27;;;;;;;35.17;47.72;101128.88;6184262;23;20364;-72
2022/04/16 07:26:55;;;;;;;15.70;9.00;;;;;;;35.23;47.91;101132.31;6157723;23;20401;-73
2022/04/16 07:29:22;;;;;;;21.77;11.17;;;;;;;35.43;47.67;101151.06;6157782;23;20389;-73
2022/04/16 07:31:49;;;;;;;19.40;9.40;;;;;;;35.83;46.76;101156.41;6157575;23;20478;-80
2022/04/16 07:34:15;;;;;;;16.47;10.07;;;;;;;36.11;46.08;101163.72;6158220;23;20400;-73
2022/04/16 07:36:45;;;;;;;17.80;10.37;;;;;;;35.68;46.96;101154.66;6158164;23;20492;-73
2022/04/16 07:39:12;;;;;;;18.50;9.73;;;;;;;35.87;46.26;101152.84;6157254;23;20786;-71
2022/04/16 07:41:39;;;;;;;12.80;6.90;;;;;;;35.94;45.88;101155.25;6183585;23;20356;-69
2022/04/16 07:44:06;;;;;;;13.73;8.03;;;;;;;35.83;46.63;101159.91;6157939;23;20384;-69
2022/04/16 07:46:33;;;;;;;12.00;7.90;;;;;;;35.43;47.71;101180.75;6133521;23;20448;-73
2022/04/16 07:49:00;;;;;;;13.43;8.67;;;;;;;35.37;48.19;101183.75;6157732;23;20399;-71
2022/04/16 07:51:27;;;;;;;18.87;8.40;;;;;;;35.18;49.02;101181.69;6157965;23;20426;-73
2022/04/16 07:53:57;;;;;;;15.57;11.97;;;;;;;35.47;48.22;101197.16;6157710;23;20416;-74
2022/04/16 07:56:24;;;;;;;31.37;22.37;;;;;;;35.14;49.24;101199.50;6183927;23;20934;-72
2022/04/16 07:58:51;;;;;;;30.27;23.00;;;;;;;34.94;49.61;101188.84;6133183;23;20427;-74
2022/04/16 08:01:17;;;;;;;31.83;21.93;;;;;;;34.55;50.60;101186.81;6156231;23;20865;-72
2022/04/16 08:03:44;;;;;;;29.87;19.30;;;;;;;34.72;49.80;101186.47;6157306;23;20384;-72
2022/04/16 08:06:10;;;;;;;19.63;13.33;;;;;;;34.94;49.79;101188.84;6156219;23;20396;-72
2022/04/16 08:08:36;;;;;;;20.77;9.83;;;;;;;34.64;50.13;101195.16;6156414;23;20727;-72
2022/04/16 08:11:02;;;;;;;13.30;9.43;;;;;;;34.82;49.83;101199.94;6157117;23;20779;-71
2022/04/16 08:13:28;;;;;;;21.40;9.60;;;;;;;34.94;49.28;101200.44;6158283;23;20375;-73
2022/04/16 08:15:54;;;;;;;14.20;9.63;;;;;;;34.97;49.43;101207.97;6183853;23;20743;-72
2022/04/16 08:18:22;;;;;;;19.90;10.93;;;;;;;35.33;48.40;101210.44;6158174;23;20391;-72
2022/04/16 08:20:48;;;;;;;21.57;12.13;;;;;;;35.54;47.82;101213.84;6157442;23;20408;-70
2022/04/16 08:23:15;;;;;;;17.60;9.63;;;;;;;36.02;47.13;101208.63;6157391;23;20459;-75
2022/04/16 08:28:08;;;;;;;19.33;12.00;;;;;;;36.17;46.20;101207.69;6184141;23;20748;-71
2022/04/16 08:30:35;;;;;;;21.37;11.70;;;;;;;36.17;46.18;101194.19;6183827;23;20443;-74
2022/04/16 08:33:01;;;;;;;16.73;10.73;;;;;;;36.29;45.70;101197.28;6184171;23;20403;-75
2022/04/16 08:35:27;;;;;;;21.73;13.90;;;;;;;36.53;44.77;101203.53;6184042;23;20387;-69
2022/04/16 08:37:53;;;;;;;19.10;11.40;;;;;;;36.50;44.68;101212.19;6156778;23;20483;-70
2022/04/16 08:40:20;;;;;;;20.20;12.67;;;;;;;36.59;44.38;101204.28;6155767;23;20397;-71
2022/04/16 08:42:51;;;;;;;15.00;11.30;;;;;;;36.62;44.28;101206.38;6156724;23;20407;-70
2022/04/16 08:45:17;;;;;;;23.03;14.83;;;;;;;36.70;44.24;101205.75;6157685;23;20757;-71
2022/04/16 08:47:44;;;;;;;20.13;13.23;;;;;;;36.62;44.21;101208.28;6133234;23;20416;-70
2022/04/16 08:50:12;;;;;;;21.53;12.03;;;;;;;36.59;44.13;101207.78;6183953;23;20426;-72
2022/04/16 08:52:40;;;;;;;18.77;12.47;;;;;;;36.64;44.39;101201.50;6156879;23;20360;-72
2022/04/16 08:55:10;;;;;;;20.13;13.30;;;;;;;36.76;44.04;101196.47;6156722;23;20457;-71
2022/04/16 08:57:38;;;;;;;25.83;13.80;;;;;;;36.48;44.49;101195.47;6155909;23;20404;-70
2022/04/16 09:00:06;;;;;;;20.30;14.07;;;;;;;36.61;44.39;101185.06;6156918;23;20388;-71
2022/04/16 09:02:32;;;;;;;22.50;14.13;;;;;;;36.59;43.92;101182.66;6156152;23;20390;-71
2022/04/16 09:05:07;;;;;;;20.47;13.37;;;;;;;36.56;44.42;101172.41;6183498;23;20373;-71
2022/04/16 09:07:47;;;;;;;17.90;12.30;;;;;;;36.38;44.29;101163.13;6157535;23;20388;-72
2022/04/16 09:10:14;;;;;;;28.70;15.67;;;;;;;36.37;44.86;101164.22;6182934;23;20442;-72
2022/04/16 09:12:41;;;;;;;19.20;15.87;;;;;;;36.52;44.09;101158.69;6156994;23;20467;-72
2022/04/16 09:15:13;;;;;;;21.27;12.77;;;;;;;36.67;44.30;101162.28;6132316;23;20762;-77
2022/04/16 09:17:39;;;;;;;18.97;12.70;;;;;;;36.63;44.37;101156.63;6157478;23;20466;-70
2022/04/16 09:20:13;;;;;;;17.90;13.63;;;;;;;36.67;43.64;101149.56;6108753;23;20825;-72
2022/04/16 09:22:41;;;;;;;20.17;15.00;;;;;;;36.70;43.59;101146.28;6157308;23;20738;-71
2022/04/16 09:25:15;;;;;;;33.50;18.90;;;;;;;36.79;44.01;101141.84;6183552;23;20819;-73
2022/04/16 09:27:50;;;;;;;30.87;16.57;;;;;;;36.65;43.69;101130.16;6156776;23;21044;-74
2022/04/16 09:30:34;;;;;;;28.77;17.10;;;;;;;36.57;44.09;101130.78;6157279;23;20490;-73
2022/04/16 09:33:02;;;;;;;26.03;20.10;;;;;;;36.67;44.24;101135.25;6159359;23;20856;-70
2022/04/16 09:35:29;;;;;;;26.17;18.13;;;;;;;36.64;44.07;101138.53;6159123;23;20380;-73
2022/04/16 09:37:57;;;;;;;32.33;21.33;;;;;;;36.52;44.81;101130.84;6185436;23;20376;-74
2022/04/16 09:40:28;;;;;;;21.37;16.30;;;;;;;35.34;47.08;101133.84;6159229;23;20384;-73
2022/04/16 09:42:56;;;;;;;29.80;20.03;;;;;;;35.40;47.59;101124.63;6159328;23;20926;-75
2022/04/16 09:45:22;;;;;;;23.43;17.60;;;;;;;35.18;47.46;101129.66;6159005;23;20388;-77
2022/04/16 09:47:49;;;;;;;26.37;20.50;;;;;;;35.22;47.99;101120.72;6159246;23;20394;-76
2022/04/16 09:50:19;;;;;;;23.03;19.00;;;;;;;35.41;47.49;101112.75;6185775;23;20444;-76
2022/04/16 09:52:59;;;;;;;25.40;19.17;;;;;;;35.48;47.50;101112.44;6159368;23;20769;-76
2022/04/16 09:55:27;;;;;;;22.83;17.33;;;;;;;35.34;47.57;101104.16;6136779;23;21006;-76
2022/04/16 09:58:04;;;;;;;28.67;17.30;;;;;;;35.15;47.96;101108.63;6159046;23;20376;-76
2022/04/16 10:00:33;;;;;;;23.47;18.23;;;;;;;35.13;48.57;101100.84;6133950;23;20376;-82
2022/04/16 10:03:00;;;;;;;30.90;15.63;;;;;;;35.43;47.80;101099.03;6158411;23;20391;-82
2022/04/16 10:05:26;;;;;;;21.83;14.30;;;;;;;35.51;46.81;101084.91;6157224;23;20861;-81
2022/04/16 10:07:53;;;;;;;28.60;16.27;;;;;;;35.86;46.31;101088.34;6157842;23;20479;-80
2022/04/16 10:10:40;;;;;;;19.83;13.77;;;;;;;36.25;45.71;101077.41;6157487;23;20431;-77
2022/04/16 10:13:09;;;;;;;22.47;16.40;;;;;;;36.29;46.38;101064.94;6184241;23;20872;-76
2022/04/16 10:16:05;;;;;;;19.83;14.50;;;;;;;36.29;45.28;101059.53;6157387;23;20407;-77
2022/04/16 10:18:34;;;;;;;20.23;13.87;;;;;;;36.33;45.36;101055.94;6158509;23;20471;-79
2022/04/16 10:21:02;;;;;;;23.10;15.97;;;;;;;35.97;46.08;101052.91;6158132;23;20399;-75
2022/04/16 10:23:38;;;;;;;22.10;16.60;;;;;;;35.89;46.73;101039.97;6159234;23;20372;-77
2022/04/16 10:26:07;;;;;;;22.00;16.73;;;;;;;35.78;46.65;101036.59;6134198;23;20392;-76
2022/04/16 10:28:56;;;;;;;25.33;15.50;;;;;;;35.66;47.55;101028.09;6158024;23;20416;-77
2022/04/16 10:31:28;;;;;;;21.43;14.20;;;;;;;35.93;47.35;101019.47;6157720;23;20432;-77
2022/04/16 10:34:05;;;;;;;21.93;14.53;;;;;;;36.15;46.49;101018.09;6157088;23;20947;-76
2022/04/16 10:36:37;;;;;;;21.13;14.83;;;;;;;36.05;46.00;101014.44;6156959;23;20416;-76
2022/04/16 10:39:17;;;;;;;27.83;16.77;;;;;;;35.62;47.45;101013.56;6158008;23;20927;-77
2022/04/16 10:41:59;;;;;;;24.17;19.93;;;;;;;35.79;47.61;101005.84;6184179;23;20431;-75
2022/04/16 10:44:26;;;;;;;21.93;16.60;;;;;;;36.36;45.55;100997.03;6184894;23;20384;-77
2022/04/16 10:46:54;;;;;;;23.37;15.30;;;;;;;36.48;45.28;100992.81;6184910;23;20372;-77
2022/04/16 10:49:23;;;;;;;25.57;17.10;;;;;;;36.05;46.69;100986.66;6157733;23;20731;-81
2022/04/16 10:51:55;;;;;;;24.23;13.77;;;;;;;36.42;45.97;100988.59;6158261;23;20462;-79
2022/04/16 10:54:34;;;;;;;19.50;16.60;;;;;;;36.35;46.26;100985.44;6157331;23;20399;-76
2022/04/16 10:57:01;;;;;;;24.80;16.17;;;;;;;36.40;45.68;100988.09;6157718;23;20448;-75
2022/04/16 10:59:43;;;;;;;21.37;15.17;;;;;;;36.73;45.11;100980.03;6157958;23;20385;-75
2022/04/16 11:02:24;;;;;;;16.87;12.90;;;;;;;35.93;45.96;100980.88;6157985;23;20388;-75
2022/04/16 11:05:10;;;;;;;18.83;13.40;;;;;;;35.94;46.66;100982.47;6183729;23;20356;-73
2022/04/16 11:07:38;;;;;;;17.40;12.80;;;;;;;35.94;46.20;100968.97;6157639;23;20734;-71
2022/04/16 11:10:09;;;;;;;20.60;14.80;;;;;;;35.97;46.21;100969.22;6109352;23;20482;-73
2022/04/16 11:12:40;;;;;;;16.17;15.00;;;;;;;36.42;45.22;100971.59;6133452;23;20404;-75
2022/04/16 11:15:14;;;;;;;13.43;11.70;;;;;;;36.56;44.88;100951.63;6157085;23;20426;-74
2022/04/16 11:17:40;;;;;;;18.40;11.80;;;;;;;36.93;44.66;100959.97;6182929;23;20384;-74
2022/04/16 11:20:07;;;;;;;16.43;13.57;;;;;;;36.92;44.77;100961.09;6157042;23;20392;-74
2022/04/16 11:22:34;;;;;;;18.00;13.37;;;;;;;37.20;44.77;100956.50;6158482;23;20360;-76
2022/04/16 11:25:04;;;;;;;19.80;14.90;;;;;;;37.05;44.28;100941.38;6157870;23;20376;-76
2022/04/16 11:36:01;;;;;;;25.13;15.47;;;;;;;36.65;45.48;100916.63;6183416;23;20360;-76
2022/04/16 11:38:29;;;;;;;19.17;13.07;;;;;;;36.78;45.12;100902.34;6157374;23;20384;-76
2022/04/16 11:41:00;;;;;;;18.77;13.37;;;;;;;36.80;44.60;100904.75;6183580;23;20865;-76
2022/04/16 11:43:30;;;;;;;16.00;12.70;;;;;;;36.78;44.96;100890.75;6157347;23;20415;-75